createdAt,value
2022-09-28T00:00:49.500Z,98400.61
2022-09-28T00:01:51.738Z,98407.02
2022-09-28T00:02:57.021Z,98400.87
2022-09-28T00:03:59.174Z,98397.64
2022-09-28T00:05:01.513Z,98402.06
2022-09-28T00:06:09.624Z,98393.48
2022-09-28T00:07:11.500Z,98400.85
2022-09-28T00:08:13.349Z,98400.39
2022-09-28T00:09:16.709Z,98393.03
2022-09-28T00:10:20.218Z,98398.00
2022-09-28T00:11:24.982Z,98393.37
2022-09-28T00:12:28.055Z,98398.26
2022-09-28T00:13:30.003Z,98398.60
2022-09-28T00:14:31.862Z,98400.48
2022-09-28T00:15:33.732Z,98399.67
2022-09-28T00:16:39.105Z,98391.49
2022-09-28T00:17:41.162Z,98388.50
2022-09-28T00:18:43.849Z,98392.09
2022-09-28T00:19:45.928Z,98391.59
2022-09-28T00:20:47.812Z,98392.56
2022-09-28T00:21:51.099Z,98387.56
2022-09-28T00:22:52.910Z,98389.92
2022-09-28T00:23:58.138Z,98386.63
2022-09-28T00:24:59.862Z,98389.08
2022-09-28T00:26:04.986Z,98390.39
2022-09-28T00:27:07.006Z,98392.19
2022-09-28T00:28:09.116Z,98386.49
2022-09-28T00:29:14.607Z,98391.36
2022-09-28T00:30:16.952Z,98397.42
2022-09-28T00:31:19.021Z,98406.31
2022-09-28T00:32:21.346Z,98404.05
2022-09-28T00:33:23.708Z,98398.48
2022-09-28T00:34:26.713Z,98395.16
2022-09-28T00:35:28.485Z,98399.05
2022-09-28T00:36:31.910Z,98397.78
2022-09-28T00:37:33.859Z,98394.94
2022-09-28T00:38:35.670Z,98399.45
2022-09-28T00:39:38.726Z,98398.72
2022-09-28T00:40:41.404Z,98397.53
2022-09-28T00:41:45.073Z,98401.33
2022-09-28T00:42:46.907Z,98401.34
2022-09-28T00:43:48.815Z,98404.90
2022-09-28T00:44:55.518Z,98403.45
2022-09-28T00:46:04.163Z,98407.24
2022-09-28T00:47:21.991Z,98404.78
2022-09-28T00:48:28.526Z,98411.31
2022-09-28T00:49:43.318Z,98411.31
2022-09-28T00:50:45.382Z,98415.35
2022-09-28T00:51:48.379Z,98412.84
2022-09-28T00:53:12.450Z,98412.47
2022-09-28T00:54:16.094Z,98406.44
2022-09-28T00:55:21.604Z,98402.13
2022-09-28T00:56:27.388Z,98405.80
2022-09-28T00:57:31.154Z,98396.08
2022-09-28T00:58:36.706Z,98400.83
2022-09-28T00:59:40.683Z,98397.06
2022-09-28T01:00:42.798Z,98401.34
2022-09-28T01:01:45.396Z,98401.56
2022-09-28T01:02:47.861Z,98397.28
2022-09-28T01:03:49.783Z,98387.31
2022-09-28T01:04:53.723Z,98385.43
2022-09-28T01:05:58.384Z,98376.75
2022-09-28T01:07:00.652Z,98386.24
2022-09-28T01:08:03.953Z,98376.02
2022-09-28T01:09:09.597Z,98383.50
2022-09-28T01:10:12.542Z,98381.50
2022-09-28T01:11:14.328Z,98382.44
2022-09-28T01:12:17.632Z,98383.41
2022-09-28T01:13:23.847Z,98385.07
2022-09-28T01:14:25.910Z,98390.16
2022-09-28T01:15:29.100Z,98388.41
2022-09-28T01:16:47.065Z,98397.30
2022-09-28T01:18:27.990Z,98385.55
2022-09-28T01:19:49.090Z,98384.70
2022-09-28T01:20:57.753Z,98387.09
2022-09-28T01:22:26.509Z,98389.92
2022-09-28T01:23:44.465Z,98389.23
2022-09-28T01:24:48.882Z,98381.02
2022-09-28T01:25:57.561Z,98388.62
2022-09-28T01:27:15.224Z,98387.80
2022-09-28T01:28:20.555Z,98386.13
2022-09-28T01:29:38.232Z,98381.61
2022-09-28T01:30:55.936Z,98395.76
2022-09-28T01:32:01.545Z,98398.02
2022-09-28T01:33:07.290Z,98395.50
2022-09-28T01:34:18.803Z,98394.94
2022-09-28T01:35:34.154Z,98394.69
2022-09-28T01:36:39.843Z,98388.85
2022-09-28T01:37:51.275Z,98393.85
2022-09-28T01:38:56.808Z,98392.80
2022-09-28T01:40:01.663Z,98385.07
2022-09-28T01:41:06.731Z,98390.16
2022-09-28T01:42:12.282Z,98387.80
2022-09-28T01:43:21.089Z,98387.09
2022-09-28T01:44:26.779Z,98393.60
2022-09-28T01:45:32.799Z,98396.59
2022-09-28T01:46:40.879Z,98395.48
2022-09-28T01:47:46.089Z,98396.08
2022-09-28T01:50:11.271Z,98399.42
2022-09-28T01:51:27.260Z,98395.87
2022-09-28T01:52:32.752Z,98397.75
2022-09-28T01:53:40.950Z,98388.73
2022-09-28T01:56:01.976Z,98388.25
2022-09-28T01:57:14.376Z,98394.16
2022-09-28T01:58:23.671Z,98397.96
2022-09-28T01:59:32.211Z,98387.87
2022-09-28T02:00:37.516Z,98391.55
2022-09-28T02:01:55.628Z,98387.05
2022-09-28T02:03:19.799Z,98386.92
2022-09-28T02:04:30.616Z,98388.00
2022-09-28T02:05:34.721Z,98382.31
2022-09-28T02:06:40.386Z,98388.94
2022-09-28T02:07:58.028Z,98385.38
2022-09-28T02:09:03.696Z,98379.22
2022-09-28T02:10:14.245Z,98385.00
2022-09-28T02:11:18.693Z,98378.28
2022-09-28T02:12:24.620Z,98383.63
2022-09-28T02:13:32.948Z,98385.05
2022-09-28T02:14:39.282Z,98381.72
2022-09-28T02:16:00.290Z,98382.78
2022-09-28T02:17:03.373Z,98382.56
2022-09-28T02:18:06.648Z,98389.67
2022-09-28T02:19:18.312Z,98390.87
2022-09-28T02:20:23.092Z,98392.78
2022-09-28T02:21:47.333Z,98391.73
2022-09-28T02:22:52.313Z,98390.88
2022-09-28T02:24:04.337Z,98395.88
2022-09-28T02:25:42.106Z,98391.61
2022-09-28T02:26:48.101Z,98393.02
2022-09-28T02:27:59.424Z,98388.73
2022-09-28T02:29:02.011Z,98394.33
2022-09-28T02:30:05.704Z,98394.67
2022-09-28T02:31:07.716Z,98393.73
2022-09-28T02:32:10.606Z,98395.95
2022-09-28T02:33:16.208Z,98390.13
2022-09-28T02:34:18.313Z,98396.64
2022-09-28T02:35:21.553Z,98386.58
2022-09-28T02:36:27.703Z,98388.51
2022-09-28T02:37:31.049Z,98394.16
2022-09-28T02:38:34.387Z,98394.28
2022-09-28T02:39:37.277Z,98388.13
2022-09-28T02:40:40.214Z,98396.09
2022-09-28T02:41:49.582Z,98394.89
2022-09-28T02:43:13.467Z,98393.00
2022-09-28T02:44:28.145Z,98390.39
2022-09-28T02:45:43.076Z,98385.89
2022-09-28T02:46:51.817Z,98390.16
2022-09-28T02:48:08.119Z,98387.56
2022-09-28T02:49:23.445Z,98390.16
2022-09-28T02:50:47.535Z,98383.76
2022-09-28T02:51:59.294Z,98385.89
2022-09-28T02:53:07.908Z,98388.53
2022-09-28T02:54:40.398Z,98386.36
2022-09-28T02:56:07.211Z,98392.56
2022-09-28T02:57:25.030Z,98398.00
2022-09-28T02:58:42.906Z,98393.02
2022-09-28T03:00:03.974Z,98398.61
2022-09-28T03:01:12.637Z,98390.42
2022-09-28T03:02:20.948Z,98391.13
2022-09-28T03:03:35.645Z,98396.83
2022-09-28T03:05:05.472Z,98396.58
2022-09-28T03:06:26.668Z,98394.45
2022-09-28T03:07:46.616Z,98394.92
2022-09-28T03:09:00.865Z,98395.64
2022-09-28T03:10:29.782Z,98394.20
2022-09-28T03:11:35.288Z,98394.20
2022-09-28T03:12:38.923Z,98398.24
2022-09-28T03:13:41.988Z,98406.78
2022-09-28T03:14:45.328Z,98395.50
2022-09-28T03:15:48.966Z,98389.45
2022-09-28T03:16:52.548Z,98392.33
2022-09-28T03:17:56.235Z,98386.02
2022-09-28T03:18:58.389Z,98391.35
2022-09-28T03:20:00.978Z,98387.30
2022-09-28T03:21:04.511Z,98390.01
2022-09-28T03:22:07.422Z,98395.37
2022-09-28T03:23:24.361Z,98397.06
2022-09-28T03:24:14.996Z,98392.78
2022-09-28T03:25:17.701Z,98393.72
2022-09-28T03:26:20.748Z,98393.85
2022-09-28T03:27:22.501Z,98396.09
2022-09-28T03:28:24.314Z,98389.34
2022-09-28T03:29:26.119Z,98394.57
2022-09-28T03:30:30.002Z,98391.15
2022-09-28T03:31:33.029Z,98389.81
2022-09-28T03:32:36.131Z,98386.61
2022-09-28T03:33:39.194Z,98389.55
2022-09-28T03:34:40.805Z,98387.53
2022-09-28T03:35:47.915Z,98396.58
2022-09-28T03:36:51.254Z,98389.42
2022-09-28T03:37:56.835Z,98386.74
2022-09-28T03:38:59.638Z,98396.58
2022-09-28T03:40:03.189Z,98397.19
2022-09-28T03:41:05.705Z,98403.00
2022-09-28T03:42:09.571Z,98396.57
2022-09-28T03:43:13.457Z,98398.01
2022-09-28T03:44:16.055Z,98396.38
2022-09-28T03:45:18.081Z,98395.89
2022-09-28T03:46:20.575Z,98401.80
2022-09-28T03:47:24.319Z,98400.02
2022-09-28T03:48:32.343Z,98400.98
2022-09-28T03:49:32.630Z,98399.91
2022-09-28T03:50:34.577Z,98404.66
2022-09-28T03:51:36.655Z,98398.50
2022-09-28T03:52:38.450Z,98397.17
2022-09-28T03:53:40.825Z,98401.55
2022-09-28T03:54:46.938Z,98406.69
2022-09-28T03:55:48.298Z,98401.08
2022-09-28T03:56:50.238Z,98399.31
2022-09-28T03:57:55.145Z,98396.38
2022-09-28T03:58:57.072Z,98399.91
2022-09-28T03:59:58.992Z,98397.19
2022-09-28T04:01:05.973Z,98395.63
2022-09-28T04:02:08.137Z,98395.14
2022-09-28T04:03:10.307Z,98389.91
2022-09-28T04:04:12.828Z,98397.71
2022-09-28T04:05:14.835Z,98396.50
2022-09-28T04:06:17.437Z,98388.83
2022-09-28T04:07:19.263Z,98391.45
2022-09-28T04:08:21.560Z,98386.36
2022-09-28T04:09:24.156Z,98383.61
2022-09-28T04:10:26.118Z,98385.41
2022-09-28T04:11:42.866Z,98389.09
2022-09-28T04:12:33.723Z,98385.89
2022-09-28T04:13:35.537Z,98390.89
2022-09-28T04:14:39.251Z,98394.55
2022-09-28T04:15:41.800Z,98394.22
2022-09-28T04:16:43.859Z,98399.45
2022-09-28T04:17:47.687Z,98399.09
2022-09-28T04:18:52.046Z,98397.91
2022-09-28T04:20:12.485Z,98400.84
2022-09-28T04:21:22.572Z,98398.23
2022-09-28T04:22:26.311Z,98394.81
2022-09-28T04:23:28.696Z,98392.30
2022-09-28T04:24:30.726Z,98386.34
2022-09-28T04:25:32.501Z,98394.15
2022-09-28T04:26:34.475Z,98389.38
2022-09-28T04:27:36.331Z,98387.79
2022-09-28T04:28:38.039Z,98397.66
2022-09-28T04:29:40.445Z,98397.88
2022-09-28T04:30:44.967Z,98392.05
2022-09-28T04:31:52.732Z,98399.26
2022-09-28T04:32:56.413Z,98389.95
2022-09-28T04:33:58.397Z,98382.83
2022-09-28T04:35:00.118Z,98382.83
2022-09-28T04:36:01.880Z,98397.73
2022-09-28T04:37:03.614Z,98399.16
2022-09-28T04:38:05.494Z,98395.56
2022-09-28T04:39:07.655Z,98392.95
2022-09-28T04:40:10.514Z,98397.43
2022-09-28T04:41:13.358Z,98397.43
2022-09-28T04:42:15.325Z,98398.95
2022-09-28T04:43:17.320Z,98395.97
2022-09-28T04:44:19.272Z,98394.06
2022-09-28T04:45:23.436Z,98396.54
2022-09-28T04:46:27.158Z,98397.62
2022-09-28T04:47:30.982Z,98392.27
2022-09-28T04:48:51.069Z,98403.23
2022-09-28T04:50:00.762Z,98397.28
2022-09-28T04:51:07.637Z,98394.11
2022-09-28T04:52:11.010Z,98407.05
2022-09-28T04:53:13.498Z,98399.68
2022-09-28T04:54:15.406Z,98399.83
2022-09-28T04:55:17.182Z,98401.05
2022-09-28T04:56:19.137Z,98399.83
2022-09-28T04:57:20.860Z,98401.00
2022-09-28T04:58:23.811Z,98394.90
2022-09-28T04:59:26.230Z,98396.64
2022-09-28T05:00:30.005Z,98395.19
2022-09-28T05:01:36.534Z,98391.11
2022-09-28T05:02:56.936Z,98399.91
2022-09-28T05:04:03.671Z,98401.58
2022-09-28T05:05:10.225Z,98396.79
2022-09-28T05:06:30.750Z,98408.98
2022-09-28T05:07:40.525Z,98406.39
2022-09-28T05:08:42.647Z,98406.39
2022-09-28T05:09:45.507Z,98405.89
2022-09-28T05:10:47.500Z,98413.87
2022-09-28T05:11:52.133Z,98405.89
2022-09-28T05:12:55.922Z,98407.23
2022-09-28T05:13:58.877Z,98409.95
2022-09-28T05:15:01.137Z,98407.10
2022-09-28T05:16:05.533Z,98404.56
2022-09-28T05:17:09.956Z,98401.30
2022-09-28T05:18:16.700Z,98403.31
2022-09-28T05:19:23.196Z,98398.66
2022-09-28T05:20:26.462Z,98398.14
2022-09-28T05:21:28.463Z,98401.95
2022-09-28T05:22:31.194Z,98394.57
2022-09-28T05:23:34.604Z,98402.16
2022-09-28T05:24:37.040Z,98393.78
2022-09-28T05:25:39.446Z,98398.78
2022-09-28T05:26:43.303Z,98390.55
2022-09-28T05:27:45.743Z,98392.23
2022-09-28T05:28:50.841Z,98393.78
2022-09-28T05:29:56.373Z,98389.97
2022-09-28T05:31:03.400Z,98395.53
2022-09-28T05:32:07.582Z,98389.34
2022-09-28T05:33:11.325Z,98394.44
2022-09-28T05:34:15.175Z,98400.25
2022-09-28T05:35:18.257Z,98392.29
2022-09-28T05:36:21.877Z,98397.53
2022-09-28T05:37:24.760Z,98390.92
2022-09-28T05:38:27.483Z,98391.25
2022-09-28T05:39:29.530Z,98389.77
2022-09-28T05:40:32.094Z,98391.86
2022-09-28T05:41:34.235Z,98393.24
2022-09-28T05:42:36.464Z,98393.81
2022-09-28T05:43:39.054Z,98391.05
2022-09-28T05:44:40.945Z,98401.03
2022-09-28T05:45:43.068Z,98404.64
2022-09-28T05:46:45.258Z,98397.91
2022-09-28T05:47:47.656Z,98403.42
2022-09-28T05:48:51.536Z,98390.07
2022-09-28T05:49:55.307Z,98379.30
2022-09-28T05:50:57.368Z,98379.30
2022-09-28T05:52:00.064Z,98382.23
2022-09-28T05:53:09.685Z,98387.63
2022-09-28T05:54:12.049Z,98394.39
2022-09-28T05:55:16.030Z,98389.71
2022-09-28T05:56:21.878Z,98391.48
2022-09-28T05:57:25.306Z,98386.24
2022-09-28T05:58:27.903Z,98384.87
2022-09-28T05:59:30.811Z,98389.97
2022-09-28T06:00:34.703Z,98389.97
2022-09-28T06:01:37.554Z,98391.77
2022-09-28T06:02:41.957Z,98392.17
2022-09-28T06:03:45.817Z,98397.02
2022-09-28T06:04:48.133Z,98400.34
2022-09-28T06:05:50.973Z,98401.72
2022-09-28T06:06:53.315Z,98397.58
2022-09-28T06:07:57.899Z,98397.43
2022-09-28T06:08:59.731Z,98406.41
2022-09-28T06:10:04.941Z,98401.30
2022-09-28T06:11:17.463Z,98401.02
2022-09-28T06:12:19.627Z,98401.72
2022-09-28T06:13:23.333Z,98410.28
2022-09-28T06:14:26.206Z,98405.86
2022-09-28T06:15:30.784Z,98406.67
2022-09-28T06:16:37.362Z,98415.53
2022-09-28T06:17:41.057Z,98412.06
2022-09-28T06:19:01.196Z,98412.45
2022-09-28T06:20:21.440Z,98412.45
2022-09-28T06:21:25.375Z,98406.55
2022-09-28T06:22:27.286Z,98407.75
2022-09-28T06:23:36.933Z,98408.30
2022-09-28T06:24:40.978Z,98405.82
2022-09-28T06:25:43.155Z,98405.52
2022-09-28T06:26:45.079Z,98405.52
2022-09-28T06:29:06.115Z,98400.85
2022-09-28T06:30:09.857Z,98397.53
2022-09-28T06:31:11.989Z,98405.80
2022-09-28T06:32:18.918Z,98404.70
2022-09-28T06:33:23.771Z,98409.55
2022-09-28T06:34:25.633Z,98398.10
2022-09-28T06:35:30.020Z,98406.36
2022-09-28T06:36:33.227Z,98409.55
2022-09-28T06:37:36.039Z,98403.59
2022-09-28T06:38:38.151Z,98407.17
2022-09-28T06:39:40.221Z,98404.70
2022-09-28T06:40:43.638Z,98403.88
2022-09-28T06:41:46.495Z,98403.88
2022-09-28T06:42:58.152Z,98405.80
2022-09-28T06:44:01.874Z,98405.77
2022-09-28T06:45:22.970Z,98407.99
2022-09-28T06:46:29.368Z,98398.64
2022-09-28T06:47:58.287Z,98406.63
2022-09-28T06:49:02.760Z,98405.14
2022-09-28T06:50:23.331Z,98398.67
2022-09-28T06:52:38.039Z,98396.52
2022-09-28T06:53:53.956Z,98389.58
2022-09-28T06:55:14.359Z,98384.38
2022-09-28T06:56:18.113Z,98386.59
2022-09-28T06:57:21.067Z,98393.76
2022-09-28T06:58:24.674Z,98383.56
2022-09-28T06:59:26.399Z,98386.59
2022-09-28T07:00:30.919Z,98382.19
2022-09-28T07:01:32.846Z,98389.36
2022-09-28T07:02:46.756Z,98378.16
2022-09-28T07:05:17.607Z,98377.73
2022-09-28T07:06:27.575Z,98385.47
2022-09-28T07:07:40.679Z,98386.02
2022-09-28T07:08:57.108Z,98378.58
2022-09-28T07:09:55.533Z,98380.91
2022-09-28T07:11:07.122Z,98375.27
2022-09-28T07:12:26.033Z,98373.03
2022-09-28T07:13:50.301Z,98382.30
2022-09-28T07:14:47.822Z,98382.97
2022-09-28T07:15:47.167Z,98380.64
2022-09-28T07:17:11.917Z,98381.59
2022-09-28T07:18:03.307Z,98368.63
2022-09-28T07:19:03.893Z,98368.63
2022-09-28T07:20:18.440Z,98382.97
2022-09-28T07:21:23.611Z,98380.23
2022-09-28T07:22:19.405Z,98386.01
2022-09-28T07:23:20.886Z,98385.46
2022-09-28T07:24:41.600Z,98379.27
2022-09-28T07:26:07.893Z,98382.86
2022-09-28T07:27:20.232Z,98374.73
2022-09-28T07:28:40.606Z,98372.77
2022-09-28T07:29:59.593Z,98373.48
2022-09-28T07:31:21.592Z,98376.09
2022-09-28T07:33:51.844Z,98370.30
2022-09-28T07:34:59.096Z,98370.45
2022-09-28T07:36:06.875Z,98384.38
2022-09-28T07:37:11.683Z,98371.95
2022-09-28T07:38:13.628Z,98377.35
2022-09-28T07:39:16.116Z,98374.73
2022-09-28T07:40:18.461Z,98370.03
2022-09-28T07:41:20.691Z,98368.63
2022-09-28T07:42:25.799Z,98371.55
2022-09-28T07:43:27.674Z,98370.44
2022-09-28T07:44:30.074Z,98372.66
2022-09-28T07:45:33.258Z,98366.15
2022-09-28T07:46:35.442Z,98362.00
2022-09-28T07:47:39.409Z,98365.89
2022-09-28T07:48:46.150Z,98365.59
2022-09-28T07:50:02.186Z,98366.69
2022-09-28T07:51:12.477Z,98358.95
2022-09-28T07:52:17.979Z,98360.61
2022-09-28T07:53:23.704Z,98365.56
2022-09-28T07:54:27.678Z,98370.95
2022-09-28T07:55:44.695Z,98369.72
2022-09-28T07:56:48.471Z,98371.67
2022-09-28T07:57:56.276Z,98373.33
2022-09-28T07:59:03.134Z,98361.60
2022-09-28T08:00:09.166Z,98364.09
2022-09-28T08:01:19.837Z,98362.02
2022-09-28T08:02:22.528Z,98363.27
2022-09-28T08:03:24.560Z,98369.34
2022-09-28T08:04:28.187Z,98370.59
2022-09-28T08:05:30.956Z,98367.27
2022-09-28T08:06:34.232Z,98368.05
2022-09-28T08:07:37.388Z,98372.07
2022-09-28T08:08:41.616Z,98370.59
2022-09-28T08:09:45.916Z,98366.98
2022-09-28T08:11:08.762Z,98368.38
2022-09-28T08:12:15.480Z,98361.44
2022-09-28T08:13:22.252Z,98371.08
2022-09-28T08:14:31.741Z,98368.05
2022-09-28T08:15:35.641Z,98373.02
2022-09-28T08:16:49.563Z,98361.67
2022-09-28T08:18:02.764Z,98358.66
2022-09-28T08:19:05.041Z,98364.45
2022-09-28T08:20:08.231Z,98367.22
2022-09-28T08:21:10.581Z,98365.40
2022-09-28T08:22:13.962Z,98368.98
2022-09-28T08:23:16.114Z,98353.05
2022-09-28T08:24:20.388Z,98353.05
2022-09-28T08:25:22.781Z,98363.00
2022-09-28T08:26:25.562Z,98355.30
2022-09-28T08:27:27.615Z,98361.62
2022-09-28T08:28:29.396Z,98374.97
2022-09-28T08:29:33.227Z,98369.20
2022-09-28T08:30:57.485Z,98362.20
2022-09-28T08:32:17.486Z,98360.00
2022-09-28T08:33:27.756Z,98368.02
2022-09-28T08:34:48.052Z,98362.25
2022-09-28T08:36:02.663Z,98361.02
2022-09-28T08:37:23.882Z,98371.91
2022-09-28T08:38:45.304Z,98364.61
2022-09-28T08:40:03.556Z,98364.64
2022-09-28T08:41:29.674Z,98371.41
2022-09-28T08:42:38.153Z,98363.53
2022-09-28T08:44:14.815Z,98367.27
2022-09-28T08:45:31.273Z,98364.09
2022-09-28T08:48:10.173Z,98360.73
2022-09-28T08:49:30.895Z,98361.70
2022-09-28T08:50:59.352Z,98362.47
2022-09-28T08:52:16.721Z,98365.48
2022-09-28T08:55:17.012Z,98363.13
2022-09-28T08:56:35.667Z,98359.11
2022-09-28T08:57:47.273Z,98364.81
2022-09-28T08:58:54.334Z,98369.53
2022-09-28T09:00:08.187Z,98359.30
2022-09-28T09:01:14.062Z,98357.46
2022-09-28T09:02:22.634Z,98357.13
2022-09-28T09:03:35.199Z,98354.44
2022-09-28T09:04:39.099Z,98358.32
2022-09-28T09:06:30.290Z,98352.25
2022-09-28T09:07:43.449Z,98352.47
2022-09-28T09:09:07.402Z,98358.51
2022-09-28T09:10:22.313Z,98355.66
2022-09-28T09:11:48.226Z,98353.40
2022-09-28T09:13:00.873Z,98360.63
2022-09-28T09:14:09.618Z,98363.23
2022-09-28T09:15:30.817Z,98358.32
2022-09-28T09:16:38.397Z,98361.37
2022-09-28T09:17:50.285Z,98361.84
2022-09-28T09:19:15.451Z,98360.41
2022-09-28T09:20:56.484Z,98362.37
2022-09-28T09:23:26.666Z,98364.05
2022-09-28T09:24:46.197Z,98363.55
2022-09-28T09:25:54.590Z,98363.58
2022-09-28T09:27:06.268Z,98364.97
2022-09-28T09:28:19.323Z,98370.07
2022-09-28T09:29:28.702Z,98360.53
2022-09-28T09:31:52.544Z,98358.80
2022-09-28T09:33:21.278Z,98367.95
2022-09-28T09:34:38.053Z,98367.69
2022-09-28T09:36:08.556Z,98361.97
2022-09-28T09:37:24.788Z,98364.86
2022-09-28T09:38:51.028Z,98366.12
2022-09-28T09:40:37.651Z,98368.72
2022-09-28T09:42:13.768Z,98361.75
2022-09-28T09:43:48.066Z,98356.38
2022-09-28T09:45:24.365Z,98358.20
2022-09-28T09:47:57.271Z,98355.66
2022-09-28T09:49:22.512Z,98355.97
2022-09-28T09:50:28.162Z,98354.59
2022-09-28T09:51:51.544Z,98360.84
2022-09-28T09:53:06.242Z,98357.16
2022-09-28T09:54:19.261Z,98350.11
2022-09-28T09:55:39.561Z,98348.92
2022-09-28T09:58:29.252Z,98343.76
2022-09-28T09:59:50.259Z,98339.44
2022-09-28T10:01:00.560Z,98341.58
2022-09-28T10:02:23.567Z,98340.47
2022-09-28T10:03:33.563Z,98341.80
2022-09-28T10:04:41.483Z,98342.48
2022-09-28T10:05:48.866Z,98346.78
2022-09-28T10:06:54.523Z,98355.33
2022-09-28T10:08:06.128Z,98349.77
2022-09-28T10:09:14.597Z,98347.27
2022-09-28T10:10:29.616Z,98349.90
2022-09-28T10:11:46.844Z,98356.98
2022-09-28T10:12:50.483Z,98360.30
2022-09-28T10:13:53.460Z,98362.25
2022-09-28T10:14:57.250Z,98361.44
2022-09-28T10:16:02.251Z,98361.89
2022-09-28T10:17:07.529Z,98370.92
2022-09-28T10:19:34.217Z,98367.97
2022-09-28T10:20:44.412Z,98371.31
2022-09-28T10:21:54.637Z,98366.37
2022-09-28T10:23:04.112Z,98362.00
2022-09-28T10:24:09.795Z,98377.03
2022-09-28T10:25:13.771Z,98378.45
2022-09-28T10:26:24.671Z,98376.87
2022-09-28T10:27:29.885Z,98378.13
2022-09-28T10:28:44.222Z,98377.75
2022-09-28T10:31:37.024Z,98373.09
2022-09-28T10:32:43.776Z,98375.95
2022-09-28T10:33:45.861Z,98380.42
2022-09-28T10:34:50.903Z,98375.47
2022-09-28T10:35:54.665Z,98376.59
2022-09-28T10:37:00.950Z,98379.07
2022-09-28T10:38:09.131Z,98374.47
2022-09-28T10:39:29.660Z,98371.84
2022-09-28T10:40:48.916Z,98371.63
2022-09-28T10:41:53.868Z,98381.01
2022-09-28T10:43:08.043Z,98376.54
2022-09-28T10:44:15.572Z,98377.20
2022-09-28T10:46:38.214Z,98378.88
2022-09-28T10:47:43.828Z,98377.60
2022-09-28T10:48:53.015Z,98374.56
2022-09-28T10:49:58.487Z,98378.77
2022-09-28T10:52:38.299Z,98381.86
2022-09-28T10:53:40.995Z,98378.77
2022-09-28T10:54:48.876Z,98373.22
2022-09-28T10:56:01.856Z,98384.42
2022-09-28T10:57:11.495Z,98375.69
2022-09-28T10:58:28.478Z,98378.17
2022-09-28T10:59:34.699Z,98372.63
2022-09-28T11:00:43.972Z,98373.97
2022-09-28T11:01:59.107Z,98366.17
2022-09-28T11:03:02.452Z,98368.64
2022-09-28T11:04:07.364Z,98365.73
2022-09-28T11:05:13.167Z,98367.39
2022-09-28T11:06:27.374Z,98363.63
2022-09-28T11:07:32.230Z,98367.92
2022-09-28T11:08:40.855Z,98362.95
2022-09-28T11:09:51.174Z,98366.70
2022-09-28T11:11:05.737Z,98359.57
2022-09-28T11:12:11.316Z,98368.55
2022-09-28T11:13:14.904Z,98371.63
2022-09-28T11:14:25.441Z,98378.05
2022-09-28T11:15:31.288Z,98371.51
2022-09-28T11:16:35.393Z,98378.70
2022-09-28T11:17:39.321Z,98371.52
2022-09-28T11:18:42.336Z,98369.61
2022-09-28T11:19:45.830Z,98376.23
2022-09-28T11:20:49.054Z,98366.14
2022-09-28T11:21:51.878Z,98367.53
2022-09-28T11:23:01.973Z,98366.56
2022-09-28T11:24:15.529Z,98369.61
2022-09-28T11:25:23.860Z,98367.38
2022-09-28T11:26:26.323Z,98369.53
2022-09-28T11:27:28.639Z,98366.89
2022-09-28T11:28:36.248Z,98366.89
2022-09-28T11:29:43.612Z,98364.89
2022-09-28T11:30:55.803Z,98360.91
2022-09-28T11:32:15.552Z,98364.83
2022-09-28T11:33:19.763Z,98359.85
2022-09-28T11:34:59.067Z,98361.76
2022-09-28T11:36:16.046Z,98360.23
2022-09-28T11:37:39.099Z,98351.30
2022-09-28T11:38:48.656Z,98354.04
2022-09-28T11:40:27.935Z,98354.41
2022-09-28T11:41:54.862Z,98356.13
2022-09-28T11:43:16.939Z,98356.20
2022-09-28T11:44:47.542Z,98353.93
2022-09-28T11:46:10.081Z,98352.63
2022-09-28T11:47:38.870Z,98347.07
2022-09-28T11:48:44.642Z,98343.98
2022-09-28T11:49:59.365Z,98352.08
2022-09-28T11:51:11.454Z,98351.06
2022-09-28T11:52:25.730Z,98346.65
2022-09-28T11:53:49.286Z,98359.81
2022-09-28T11:54:55.517Z,98359.45
2022-09-28T11:56:06.558Z,98351.77
2022-09-28T11:57:09.384Z,98347.64
2022-09-28T11:58:24.096Z,98350.44
2022-09-28T11:59:30.233Z,98350.44
2022-09-28T12:00:37.230Z,98352.91
2022-09-28T12:01:49.334Z,98353.59
2022-09-28T12:03:00.576Z,98349.82
2022-09-28T12:04:21.536Z,98353.14
2022-09-28T12:05:27.264Z,98354.27
2022-09-28T12:06:33.470Z,98360.77
2022-09-28T12:07:38.960Z,98358.53
2022-09-28T12:08:46.420Z,98359.05
2022-09-28T12:10:09.084Z,98358.80
2022-09-28T12:11:17.571Z,98358.85
2022-09-28T12:12:49.289Z,98368.73
2022-09-28T12:13:54.811Z,98368.36
2022-09-28T12:15:00.387Z,98374.69
2022-09-28T12:17:36.289Z,98370.50
2022-09-28T12:18:45.037Z,98377.56
2022-09-28T12:19:50.634Z,98373.87
2022-09-28T12:21:19.302Z,98380.80
2022-09-28T12:22:41.373Z,98376.98
2022-09-28T12:23:46.041Z,98377.99
2022-09-28T12:24:52.203Z,98380.23
2022-09-28T12:26:01.825Z,98379.27
2022-09-28T12:27:13.026Z,98376.33
2022-09-28T12:28:37.950Z,98382.02
2022-09-28T12:29:49.889Z,98377.30
2022-09-28T12:30:53.933Z,98373.81
2022-09-28T12:32:11.095Z,98379.17
2022-09-28T12:33:15.164Z,98369.58
2022-09-28T12:34:17.214Z,98371.84
2022-09-28T12:35:41.988Z,98370.00
2022-09-28T12:37:03.083Z,98374.44
2022-09-28T12:38:31.744Z,98373.22
2022-09-28T12:39:57.739Z,98372.91
2022-09-28T12:41:15.137Z,98370.91
2022-09-28T12:42:29.696Z,98374.44
2022-09-28T12:43:51.047Z,98367.02
2022-09-28T12:45:28.747Z,98376.09
2022-09-28T12:47:00.702Z,98366.19
2022-09-28T12:48:38.448Z,98361.25
2022-09-28T12:50:37.561Z,98360.42
2022-09-28T12:51:17.571Z,98354.61
2022-09-28T12:52:58.081Z,98348.11
2022-09-28T12:54:28.337Z,98353.11
2022-09-28T12:55:53.989Z,98357.10
2022-09-28T12:57:11.660Z,98359.94
2022-09-28T12:58:44.748Z,98362.19
2022-09-28T12:59:57.485Z,98362.12
2022-09-28T13:01:35.047Z,98359.22
2022-09-28T13:02:41.174Z,98370.69
2022-09-28T13:03:52.957Z,98373.27
2022-09-28T13:05:16.870Z,98367.55
2022-09-28T13:06:37.913Z,98369.03
2022-09-28T13:07:46.664Z,98367.05
2022-09-28T13:09:04.721Z,98371.34
2022-09-28T13:10:16.217Z,98376.08
2022-09-28T13:11:53.481Z,98376.93
2022-09-28T13:13:04.867Z,98371.67
2022-09-28T13:14:16.504Z,98381.01
2022-09-28T13:18:11.866Z,98371.36
2022-09-28T13:19:20.571Z,98367.17
2022-09-28T13:20:49.415Z,98369.32
2022-09-28T13:23:28.965Z,98367.05
2022-09-28T13:24:34.478Z,98362.70
2022-09-28T13:28:00.758Z,98369.25
2022-09-28T13:29:18.228Z,98363.98
2022-09-28T13:30:20.814Z,98361.83
2022-09-28T13:31:29.253Z,98370.44
2022-09-28T13:32:33.732Z,98362.23
2022-09-28T13:33:39.076Z,98367.64
2022-09-28T13:34:41.448Z,98370.98
2022-09-28T13:35:43.569Z,98367.28
2022-09-28T13:36:49.082Z,98359.78
2022-09-28T13:38:17.240Z,98365.14
2022-09-28T13:39:45.074Z,98365.14
2022-09-28T13:41:08.863Z,98363.58
2022-09-28T13:44:15.064Z,98358.95
2022-09-28T13:45:23.387Z,98357.88
2022-09-28T13:46:50.402Z,98363.83
2022-09-28T13:48:05.351Z,98359.11
2022-09-28T13:49:11.961Z,98356.16
2022-09-28T13:50:20.937Z,98359.83
2022-09-28T13:51:41.393Z,98361.26
2022-09-28T13:52:53.244Z,98356.97
2022-09-28T13:54:04.836Z,98370.30
2022-09-28T13:55:25.548Z,98363.20
2022-09-28T13:56:52.382Z,98363.50
2022-09-28T13:58:04.035Z,98364.70
2022-09-28T13:59:16.353Z,98357.71
2022-09-28T14:00:25.060Z,98357.71
2022-09-28T14:01:42.829Z,98361.26
2022-09-28T14:04:59.769Z,98362.08
2022-09-28T14:06:23.620Z,98360.09
2022-09-28T14:07:36.881Z,98364.66